Real del Padre, Argentina
Current Conditions -  °F | °C
As of 2:00 PM on Tuesday 21 Oct 2014 (Local Time) from SAME Reporting Station
Clear Clear  
Wind Chill: 88°   Ceiling: Unl
Heat Index: 88°   Visibility: 6mi
Dew Point: 52°   Wind: 8mph
Humidity: 29%   Direction: 360°N
Pressure: 29.88"   Gusts: NA
Location:  34.83°S, 67.77°W
Report Text: SAME 211700Z 36007KT CAVOK 31/11 Q1012
Loading
Personal Weather Stations






























Interactive Weather Map New forecast layout! Learn more

10-Day Weather Forecast

Advertisements
Track Severe Weather on mobile